PDT5927 KPHL-KROA
Flight info
| Callsign | PDT5927 |
|---|---|
| Flight time | 0h 55m |
| Altitude | 30000 |
| Route | STOEN REEFI EMI J48 MOL |
| Aircraft | E145/M-SDFGIRW/S |
Departure
| Time | 2026-04-23 19:15 |
|---|---|
| Airport | Philadelphia International Airport (KPHL) |
Arrival
| Time | 2026-04-23 20:11 |
|---|---|
| Airport | Roanoke–Blacksburg Regional Airport (KROA) |
| Time | Latitude | Longitude | Altitude | Speed | Heading |
|---|---|---|---|---|---|
| 2026-04-23 18:53 | 39.88119 | -75.23781 | 14 ft | 0 kts | 110° |
| 2026-04-23 19:02 | 39.88119 | -75.23780 | 14 ft | 0 kts | 110° |
| 2026-04-23 19:02 | 39.88121 | -75.23790 | 14 ft | 2 kts | 110° |
| 2026-04-23 19:02 | 39.88126 | -75.23808 | 14 ft | 2 kts | 110° |
| 2026-04-23 19:03 | 39.88133 | -75.23822 | 14 ft | 1 kts | 155° |
| 2026-04-23 19:03 | 39.88145 | -75.23830 | 14 ft | 2 kts | 128° |
| 2026-04-23 19:03 | 39.88150 | -75.23848 | 14 ft | 2 kts | 83° |
| 2026-04-23 19:03 | 39.88148 | -75.23859 | 14 ft | 1 kts | 61° |
| 2026-04-23 19:04 | 39.88147 | -75.23860 | 14 ft | 0 kts | 60° |
| 2026-04-23 19:06 | 39.88150 | -75.23853 | 14 ft | 1 kts | 60° |
| 2026-04-23 19:06 | 39.88157 | -75.23840 | 14 ft | 3 kts | 54° |
| 2026-04-23 19:06 | 39.88192 | -75.23814 | 14 ft | 5 kts | 16° |
| 2026-04-23 19:07 | 39.88238 | -75.23801 | 14 ft | 7 kts | 12° |
| 2026-04-23 19:07 | 39.88290 | -75.23766 | 14 ft | 9 kts | 51° |
| 2026-04-23 19:07 | 39.88319 | -75.23680 | 14 ft | 11 kts | 68° |
| 2026-04-23 19:07 | 39.88370 | -75.23601 | 14 ft | 12 kts | 86° |
| 2026-04-23 19:08 | 39.88304 | -75.23534 | 14 ft | 13 kts | 159° |
| 2026-04-23 19:08 | 39.88206 | -75.23486 | 14 ft | 15 kts | 159° |
| 2026-04-23 19:08 | 39.88103 | -75.23434 | 14 ft | 13 kts | 159° |
| 2026-04-23 19:08 | 39.88029 | -75.23398 | 14 ft | 10 kts | 159° |
| 2026-04-23 19:09 | 39.87970 | -75.23369 | 14 ft | 8 kts | 159° |
| 2026-04-23 19:09 | 39.87908 | -75.23338 | 14 ft | 10 kts | 159° |
| 2026-04-23 19:09 | 39.87832 | -75.23300 | 14 ft | 12 kts | 159° |
| 2026-04-23 19:09 | 39.87743 | -75.23256 | 14 ft | 14 kts | 159° |
| 2026-04-23 19:10 | 39.87639 | -75.23204 | 14 ft | 17 kts | 159° |
| 2026-04-23 19:10 | 39.87521 | -75.23146 | 14 ft | 18 kts | 159° |
| 2026-04-23 19:10 | 39.87393 | -75.23083 | 14 ft | 20 kts | 158° |
| 2026-04-23 19:10 | 39.87254 | -75.23013 | 14 ft | 22 kts | 159° |
| 2026-04-23 19:11 | 39.87153 | -75.23041 | 14 ft | 16 kts | 255° |
| 2026-04-23 19:11 | 39.87112 | -75.23174 | 14 ft | 14 kts | 221° |
| 2026-04-23 19:11 | 39.87049 | -75.23283 | 14 ft | 16 kts | 244° |
| 2026-04-23 19:11 | 39.87014 | -75.23430 | 14 ft | 17 kts | 256° |
| 2026-04-23 19:12 | 39.86993 | -75.23536 | 14 ft | 18 kts | 256° |
| 2026-04-23 19:12 | 39.86947 | -75.23765 | 14 ft | 20 kts | 256° |
| 2026-04-23 19:12 | 39.86911 | -75.23925 | 14 ft | 10 kts | 233° |
| 2026-04-23 19:12 | 39.86895 | -75.23940 | 14 ft | 0 kts | 200° |
| 2026-04-23 19:13 | 39.86887 | -75.23940 | 14 ft | 2 kts | 181° |
| 2026-04-23 19:13 | 39.86847 | -75.23932 | 14 ft | 10 kts | 166° |
| 2026-04-23 19:13 | 39.86796 | -75.23946 | 14 ft | 7 kts | 257° |
| 2026-04-23 19:14 | 39.86795 | -75.23951 | 14 ft | 0 kts | 257° |
| 2026-04-23 19:14 | 39.86794 | -75.23961 | 15 ft | 5 kts | 257° |
| 2026-04-23 19:14 | 39.86744 | -75.24209 | 17 ft | 64 kts | 256° |
| 2026-04-23 19:14 | 39.86570 | -75.25078 | 21 ft | 130 kts | 255° |
| 2026-04-23 19:15 | 39.86312 | -75.26369 | 309 ft | 151 kts | 258° |
| 2026-04-23 19:15 | 39.86012 | -75.27691 | 889 ft | 162 kts | 248° |
| 2026-04-23 19:15 | 39.85365 | -75.29023 | 1372 ft | 187 kts | 237° |
| 2026-04-23 19:15 | 39.84491 | -75.30365 | 2017 ft | 205 kts | 231° |
| 2026-04-23 19:16 | 39.83482 | -75.31809 | 2456 ft | 235 kts | 233° |
| 2026-04-23 19:16 | 39.82366 | -75.33531 | 2997 ft | 258 kts | 233° |
| 2026-04-23 19:16 | 39.81221 | -75.35297 | 4047 ft | 258 kts | 233° |
| 2026-04-23 19:17 | 39.78875 | -75.38841 | 5959 ft | 263 kts | 233° |
| 2026-04-23 19:17 | 39.77771 | -75.40683 | 6830 ft | 261 kts | 248° |
| 2026-04-23 19:17 | 39.77420 | -75.42947 | 7677 ft | 253 kts | 279° |
| 2026-04-23 19:17 | 39.77677 | -75.45158 | 8589 ft | 251 kts | 285° |
| 2026-04-23 19:18 | 39.78041 | -75.47399 | 9475 ft | 253 kts | 287° |
| 2026-04-23 19:18 | 39.78425 | -75.49589 | 10342 ft | 253 kts | 288° |
| 2026-04-23 19:18 | 39.78827 | -75.51833 | 10976 ft | 263 kts | 288° |
| 2026-04-23 19:18 | 39.79254 | -75.54215 | 11466 ft | 277 kts | 287° |
| 2026-04-23 19:19 | 39.80150 | -75.59222 | 12651 ft | 294 kts | 287° |
| 2026-04-23 19:19 | 39.80613 | -75.61810 | 13411 ft | 296 kts | 287° |
| 2026-04-23 19:20 | 39.81549 | -75.67064 | 14850 ft | 301 kts | 286° |
| 2026-04-23 19:20 | 39.82027 | -75.69743 | 15551 ft | 304 kts | 286° |
| 2026-04-23 19:20 | 39.82509 | -75.72452 | 16189 ft | 308 kts | 286° |
| 2026-04-23 19:20 | 39.82989 | -75.75162 | 16923 ft | 308 kts | 286° |
| 2026-04-23 19:21 | 39.83474 | -75.77893 | 17524 ft | 312 kts | 286° |
| 2026-04-23 19:21 | 39.83396 | -75.83564 | 18928 ft | 321 kts | 268° |
| 2026-04-23 19:21 | 39.83075 | -75.86427 | 19650 ft | 319 kts | 268° |
| 2026-04-23 19:22 | 39.82757 | -75.89220 | 20365 ft | 317 kts | 268° |
| 2026-04-23 19:22 | 39.82432 | -75.92065 | 21023 ft | 317 kts | 268° |
| 2026-04-23 19:22 | 39.81785 | -75.97724 | 22334 ft | 316 kts | 268° |
| 2026-04-23 19:23 | 39.81459 | -76.00568 | 22993 ft | 315 kts | 268° |
| 2026-04-23 19:23 | 39.81141 | -76.03337 | 23619 ft | 314 kts | 269° |
| 2026-04-23 19:23 | 39.80817 | -76.06152 | 24192 ft | 315 kts | 269° |
| 2026-04-23 19:24 | 39.80167 | -76.11768 | 25404 ft | 314 kts | 269° |
| 2026-04-23 19:24 | 39.79846 | -76.14542 | 25928 ft | 315 kts | 269° |
| 2026-04-23 19:24 | 39.78735 | -76.20089 | 27026 ft | 327 kts | 253° |
| 2026-04-23 19:25 | 39.76732 | -76.25375 | 28023 ft | 329 kts | 253° |
| 2026-04-23 19:25 | 39.74749 | -76.30695 | 28986 ft | 330 kts | 253° |
| 2026-04-23 19:26 | 39.73037 | -76.35293 | 29878 ft | 328 kts | 254° |
| 2026-04-23 19:26 | 39.72216 | -76.37505 | 29981 ft | 338 kts | 253° |
| 2026-04-23 19:27 | 39.70102 | -76.43179 | 30002 ft | 363 kts | 252° |
| 2026-04-23 19:27 | 39.66612 | -76.52509 | 30000 ft | 398 kts | 252° |
| 2026-04-23 19:28 | 39.64119 | -76.59158 | 29995 ft | 418 kts | 251° |
| 2026-04-23 19:28 | 39.61531 | -76.66043 | 29989 ft | 436 kts | 250° |
| 2026-04-23 19:29 | 39.57426 | -76.76933 | 29995 ft | 459 kts | 250° |
| 2026-04-23 19:30 | 39.53264 | -76.87929 | 29992 ft | 446 kts | 250° |
| 2026-04-23 19:31 | 39.48605 | -76.98412 | 30005 ft | 458 kts | 236° |
| 2026-04-23 19:31 | 39.44567 | -77.03275 | 30005 ft | 470 kts | 221° |
| 2026-04-23 19:32 | 39.39451 | -77.08453 | 29998 ft | 467 kts | 224° |
| 2026-04-23 19:32 | 39.34404 | -77.13741 | 29997 ft | 465 kts | 224° |
| 2026-04-23 19:33 | 39.29425 | -77.18961 | 30005 ft | 463 kts | 224° |
| 2026-04-23 19:33 | 39.21916 | -77.26815 | 30004 ft | 461 kts | 224° |
| 2026-04-23 19:34 | 39.16929 | -77.32020 | 30000 ft | 461 kts | 224° |
| 2026-04-23 19:35 | 39.09476 | -77.39780 | 29996 ft | 459 kts | 224° |
| 2026-04-23 19:35 | 39.04518 | -77.44930 | 29994 ft | 458 kts | 224° |
| 2026-04-23 19:36 | 38.99565 | -77.50066 | 29991 ft | 457 kts | 223° |
| 2026-04-23 19:36 | 38.94616 | -77.55188 | 29995 ft | 457 kts | 224° |
| 2026-04-23 19:37 | 38.89689 | -77.60277 | 29990 ft | 456 kts | 223° |
| 2026-04-23 19:37 | 38.84774 | -77.65345 | 29981 ft | 455 kts | 223° |
| 2026-04-23 19:38 | 38.79854 | -77.70409 | 29987 ft | 454 kts | 223° |
| 2026-04-23 19:38 | 38.75744 | -77.74633 | 29982 ft | 453 kts | 223° |
| 2026-04-23 19:39 | 38.69999 | -77.80526 | 29989 ft | 459 kts | 222° |
| 2026-04-23 19:39 | 38.64999 | -77.85713 | 29988 ft | 461 kts | 226° |
| 2026-04-23 19:40 | 38.60931 | -77.91917 | 29995 ft | 457 kts | 238° |
| 2026-04-23 19:40 | 38.57156 | -77.98409 | 30000 ft | 455 kts | 237° |
| 2026-04-23 19:41 | 38.53364 | -78.04861 | 29992 ft | 452 kts | 237° |
| 2026-04-23 19:41 | 38.50250 | -78.10149 | 29993 ft | 449 kts | 237° |
| 2026-04-23 19:42 | 38.45891 | -78.17533 | 29996 ft | 446 kts | 237° |
| 2026-04-23 19:42 | 38.42158 | -78.23844 | 29999 ft | 444 kts | 237° |
| 2026-04-23 19:43 | 38.38446 | -78.30106 | 30005 ft | 442 kts | 237° |
| 2026-04-23 19:43 | 38.34762 | -78.36311 | 30008 ft | 440 kts | 237° |
| 2026-04-23 19:44 | 38.31071 | -78.42515 | 30003 ft | 439 kts | 237° |
| 2026-04-23 19:44 | 38.27385 | -78.48698 | 30004 ft | 438 kts | 237° |
| 2026-04-23 19:45 | 38.23705 | -78.54860 | 30006 ft | 437 kts | 236° |
| 2026-04-23 19:45 | 38.20029 | -78.61003 | 30013 ft | 436 kts | 236° |
| 2026-04-23 19:45 | 38.18177 | -78.64095 | 29901 ft | 437 kts | 237° |
| 2026-04-23 19:46 | 38.16330 | -78.67174 | 29362 ft | 432 kts | 236° |
| 2026-04-23 19:46 | 38.14535 | -78.70163 | 28836 ft | 418 kts | 236° |
| 2026-04-23 19:46 | 38.12809 | -78.73037 | 28098 ft | 412 kts | 236° |
| 2026-04-23 19:46 | 38.11084 | -78.75906 | 27321 ft | 406 kts | 235° |
| 2026-04-23 19:47 | 38.09954 | -78.77784 | 26806 ft | 402 kts | 235° |
| 2026-04-23 19:47 | 38.07692 | -78.81538 | 25767 ft | 396 kts | 235° |
| 2026-04-23 19:47 | 38.06037 | -78.84283 | 24999 ft | 391 kts | 235° |
| 2026-04-23 19:47 | 38.04379 | -78.87032 | 24202 ft | 387 kts | 235° |
| 2026-04-23 19:48 | 38.02732 | -78.89758 | 23411 ft | 383 kts | 235° |
| 2026-04-23 19:48 | 38.01137 | -78.92397 | 22868 ft | 373 kts | 235° |
| 2026-04-23 19:48 | 37.99579 | -78.94971 | 22348 ft | 363 kts | 235° |
| 2026-04-23 19:48 | 37.98049 | -78.97498 | 21834 ft | 357 kts | 234° |
| 2026-04-23 19:49 | 37.96571 | -78.99940 | 21327 ft | 352 kts | 234° |
| 2026-04-23 19:49 | 37.95066 | -79.02422 | 20804 ft | 347 kts | 234° |
| 2026-04-23 19:49 | 37.93616 | -79.04811 | 20299 ft | 342 kts | 234° |
| 2026-04-23 19:49 | 37.92176 | -79.07183 | 19787 ft | 338 kts | 234° |
| 2026-04-23 19:50 | 37.90748 | -79.09525 | 19287 ft | 335 kts | 232° |
| 2026-04-23 19:50 | 37.88999 | -79.11416 | 18785 ft | 334 kts | 212° |
| 2026-04-23 19:50 | 37.86989 | -79.12848 | 18297 ft | 331 kts | 211° |
| 2026-04-23 19:50 | 37.84955 | -79.14296 | 17783 ft | 328 kts | 211° |
| 2026-04-23 19:51 | 37.82999 | -79.15685 | 17301 ft | 325 kts | 211° |
| 2026-04-23 19:51 | 37.81014 | -79.17091 | 16811 ft | 322 kts | 211° |
| 2026-04-23 19:51 | 37.79043 | -79.18487 | 16315 ft | 320 kts | 211° |
| 2026-04-23 19:51 | 37.77116 | -79.19851 | 15827 ft | 318 kts | 211° |
| 2026-04-23 19:52 | 37.75832 | -79.20759 | 15505 ft | 316 kts | 212° |
| 2026-04-23 19:52 | 37.73256 | -79.22579 | 14840 ft | 313 kts | 212° |
| 2026-04-23 19:52 | 37.71374 | -79.23909 | 14280 ft | 314 kts | 212° |
| 2026-04-23 19:52 | 37.69470 | -79.25253 | 13770 ft | 311 kts | 212° |
| 2026-04-23 19:53 | 37.67567 | -79.26595 | 13133 ft | 311 kts | 212° |
| 2026-04-23 19:53 | 37.65718 | -79.27898 | 12420 ft | 300 kts | 212° |
| 2026-04-23 19:53 | 37.63948 | -79.29146 | 11687 ft | 292 kts | 212° |
| 2026-04-23 19:53 | 37.62197 | -79.30378 | 10940 ft | 286 kts | 212° |
| 2026-04-23 19:54 | 37.60455 | -79.31606 | 10252 ft | 289 kts | 212° |
| 2026-04-23 19:54 | 37.58717 | -79.32829 | 9748 ft | 289 kts | 212° |
| 2026-04-23 19:54 | 37.56966 | -79.34058 | 9195 ft | 281 kts | 212° |
| 2026-04-23 19:54 | 37.55305 | -79.35245 | 8693 ft | 266 kts | 217° |
| 2026-04-23 19:55 | 37.53881 | -79.36606 | 8215 ft | 255 kts | 211° |
| 2026-04-23 19:55 | 37.52241 | -79.37380 | 7744 ft | 250 kts | 193° |
| 2026-04-23 19:55 | 37.50613 | -79.37915 | 7270 ft | 240 kts | 213° |
| 2026-04-23 19:55 | 37.49359 | -79.39250 | 6856 ft | 238 kts | 222° |
| 2026-04-23 19:56 | 37.48425 | -79.39999 | 6540 ft | 244 kts | 212° |
| 2026-04-23 19:56 | 37.46911 | -79.41042 | 6062 ft | 250 kts | 214° |
| 2026-04-23 19:56 | 37.44899 | -79.42516 | 5599 ft | 249 kts | 213° |
| 2026-04-23 19:56 | 37.43396 | -79.43578 | 5343 ft | 245 kts | 212° |
| 2026-04-23 19:57 | 37.42421 | -79.44262 | 5202 ft | 241 kts | 212° |
| 2026-04-23 19:57 | 37.40494 | -79.45612 | 4936 ft | 234 kts | 212° |
| 2026-04-23 19:57 | 37.39539 | -79.46279 | 4798 ft | 231 kts | 212° |
| 2026-04-23 19:57 | 37.37667 | -79.47588 | 4525 ft | 231 kts | 212° |
| 2026-04-23 19:58 | 37.36268 | -79.48565 | 4404 ft | 230 kts | 213° |
| 2026-04-23 19:58 | 37.34863 | -79.49547 | 4329 ft | 231 kts | 213° |
| 2026-04-23 19:58 | 37.33465 | -79.50523 | 4251 ft | 232 kts | 212° |
| 2026-04-23 19:58 | 37.32044 | -79.51514 | 4123 ft | 233 kts | 212° |
| 2026-04-23 19:59 | 37.30618 | -79.52509 | 3993 ft | 233 kts | 213° |
| 2026-04-23 19:59 | 37.29183 | -79.53509 | 3859 ft | 234 kts | 212° |
| 2026-04-23 19:59 | 37.27756 | -79.54503 | 3753 ft | 232 kts | 212° |
| 2026-04-23 19:59 | 37.26352 | -79.55479 | 3741 ft | 227 kts | 212° |
| 2026-04-23 20:00 | 37.25447 | -79.56110 | 3739 ft | 223 kts | 212° |
| 2026-04-23 20:00 | 37.23671 | -79.57346 | 3742 ft | 215 kts | 213° |
| 2026-04-23 20:00 | 37.22378 | -79.58246 | 3746 ft | 212 kts | 213° |
| 2026-04-23 20:00 | 37.21083 | -79.59147 | 3749 ft | 211 kts | 213° |
| 2026-04-23 20:01 | 37.19791 | -79.60045 | 3751 ft | 211 kts | 213° |
| 2026-04-23 20:01 | 37.18516 | -79.60930 | 3745 ft | 211 kts | 213° |
| 2026-04-23 20:01 | 37.17225 | -79.61827 | 3745 ft | 211 kts | 213° |
| 2026-04-23 20:01 | 37.15957 | -79.62787 | 3741 ft | 208 kts | 226° |
| 2026-04-23 20:02 | 37.15249 | -79.64269 | 3772 ft | 197 kts | 256° |
| 2026-04-23 20:02 | 37.14839 | -79.65885 | 3760 ft | 191 kts | 255° |
| 2026-04-23 20:02 | 37.14440 | -79.67438 | 3738 ft | 182 kts | 255° |
| 2026-04-23 20:02 | 37.14066 | -79.68910 | 3740 ft | 174 kts | 255° |
| 2026-04-23 20:03 | 37.13705 | -79.70316 | 3742 ft | 165 kts | 255° |
| 2026-04-23 20:03 | 37.13345 | -79.71689 | 3749 ft | 167 kts | 255° |
| 2026-04-23 20:03 | 37.12983 | -79.73065 | 3749 ft | 169 kts | 255° |
| 2026-04-23 20:03 | 37.12612 | -79.74470 | 3753 ft | 170 kts | 255° |
| 2026-04-23 20:04 | 37.12238 | -79.75884 | 3750 ft | 171 kts | 255° |
| 2026-04-23 20:04 | 37.11866 | -79.77310 | 3755 ft | 171 kts | 255° |
| 2026-04-23 20:04 | 37.11502 | -79.78725 | 3756 ft | 172 kts | 255° |
| 2026-04-23 20:04 | 37.11469 | -79.80172 | 3760 ft | 166 kts | 293° |
| 2026-04-23 20:05 | 37.11796 | -79.81053 | 3776 ft | 165 kts | 296° |
| 2026-04-23 20:05 | 37.12787 | -79.82451 | 3773 ft | 166 kts | 327° |
| 2026-04-23 20:05 | 37.13780 | -79.83220 | 3764 ft | 167 kts | 326° |
| 2026-04-23 20:05 | 37.14775 | -79.84000 | 3756 ft | 168 kts | 326° |
| 2026-04-23 20:06 | 37.15776 | -79.84778 | 3763 ft | 169 kts | 326° |
| 2026-04-23 20:06 | 37.16770 | -79.85549 | 3765 ft | 170 kts | 327° |
| 2026-04-23 20:06 | 37.17779 | -79.86333 | 3761 ft | 170 kts | 327° |
| 2026-04-23 20:06 | 37.18790 | -79.87119 | 3752 ft | 169 kts | 327° |
| 2026-04-23 20:07 | 37.19781 | -79.87890 | 3677 ft | 171 kts | 327° |
| 2026-04-23 20:07 | 37.20838 | -79.88713 | 3485 ft | 179 kts | 326° |
| 2026-04-23 20:07 | 37.21914 | -79.89549 | 3265 ft | 188 kts | 327° |
| 2026-04-23 20:07 | 37.22664 | -79.90134 | 3103 ft | 193 kts | 326° |
| 2026-04-23 20:08 | 37.24190 | -79.91321 | 2779 ft | 184 kts | 327° |
| 2026-04-23 20:08 | 37.25200 | -79.92106 | 2551 ft | 156 kts | 327° |
| 2026-04-23 20:08 | 37.26059 | -79.92776 | 2348 ft | 131 kts | 325° |
| 2026-04-23 20:08 | 37.26795 | -79.93353 | 2187 ft | 126 kts | 326° |
| 2026-04-23 20:09 | 37.27526 | -79.93922 | 2029 ft | 124 kts | 326° |
| 2026-04-23 20:09 | 37.28287 | -79.94517 | 1884 ft | 129 kts | 326° |
| 2026-04-23 20:09 | 37.29062 | -79.95099 | 1684 ft | 128 kts | 325° |
| 2026-04-23 20:09 | 37.29805 | -79.95667 | 1534 ft | 124 kts | 325° |
| 2026-04-23 20:10 | 37.30286 | -79.96060 | 1413 ft | 125 kts | 323° |
| 2026-04-23 20:10 | 37.31274 | -79.96837 | 1228 ft | 123 kts | 326° |
| 2026-04-23 20:10 | 37.31971 | -79.97386 | 1151 ft | 110 kts | 326° |
| 2026-04-23 20:10 | 37.32342 | -79.97680 | 1161 ft | 73 kts | 328° |
| 2026-04-23 20:11 | 37.32676 | -79.97938 | 1162 ft | 31 kts | 327° |
| 2026-04-23 20:11 | 37.32798 | -79.98025 | 1159 ft | 4 kts | 349° |
| 2026-04-23 20:11 | 37.32839 | -79.98012 | 1158 ft | 8 kts | 36° |
| 2026-04-23 20:11 | 37.32839 | -79.97936 | 1158 ft | 10 kts | 136° |
| 2026-04-23 20:12 | 37.32780 | -79.97887 | 1160 ft | 9 kts | 148° |
| 2026-04-23 20:12 | 37.32724 | -79.97844 | 1162 ft | 9 kts | 148° |
| 2026-04-23 20:12 | 37.32644 | -79.97780 | 1165 ft | 17 kts | 147° |
| 2026-04-23 20:12 | 37.32534 | -79.97682 | 1167 ft | 19 kts | 144° |
| 2026-04-23 20:13 | 37.32460 | -79.97616 | 1166 ft | 8 kts | 118° |
| 2026-04-23 20:13 | 37.32449 | -79.97540 | 1166 ft | 10 kts | 133° |
| 2026-04-23 20:13 | 37.32379 | -79.97483 | 1165 ft | 13 kts | 148° |
| 2026-04-23 20:13 | 37.32293 | -79.97415 | 1164 ft | 16 kts | 148° |
| 2026-04-23 20:14 | 37.32193 | -79.97337 | 1161 ft | 10 kts | 147° |
| 2026-04-23 20:14 | 37.32174 | -79.97269 | 1162 ft | 6 kts | 117° |
| 2026-04-23 20:14 | 37.32127 | -79.97230 | 1161 ft | 9 kts | 145° |
| 2026-04-23 20:14 | 37.32115 | -79.97169 | 1161 ft | 2 kts | 104° |
| 2026-04-23 20:15 | 37.32113 | -79.97156 | 1161 ft | 2 kts | 105° |
| 2026-04-23 20:15 | 37.32110 | -79.97144 | 1161 ft | 0 kts | 105° |